33.0°F
Current conditions from King Hill
Updated every 5 minutes
 
  Saturday May 9, 2026

Observations for Westford

Westford

44° 37' 38"N, 73° 02' 30"W, Elevation 850 ft.
Eastern Time

Hourly observations for the last 72 hours

Date Time Temperature (°F) Humi-
dity

(%)
Wind
(mph)
Pressure Rain (in) Sun
(W/m2)
UV ET
(in)
Air Dew 6 Hour 1 Hr 3 Hr 6 Hr Day
Alt
(in)
Sea
Level

(mb)
Max Min
9 01:00 34.3 28.2 78 S 1 G 3 29.85 1010.8 0.00 0 0.0 0.000
9 00:00 35.3 29.1 78 SW 0 G 4 29.85 1010.8 0.00 0 0.0 0.069
8 23:00 36.2 29.4 76 Calm 29.83 1010.3 0.00 0 0.0 0.068
8 22:00 40.4 30.7 68 Calm 29.83 1010.1 0.00 0 0.0 0.067
8 21:00 42.6 33.5 70 Calm 29.81 1009.5 0.00 0 0.0 0.067
8 20:00 45.9 32.8 52.8 45.9 60 Calm 29.79 1008.9 0.00 0 0.0 0.066
8 19:00 48.6 32.7 54 Calm 29.78 1008.7 0.00 37 0.0 0.064
8 18:00 50.2 30.2 46 SW 2 G 8 29.78 1008.6 0.00 107 0.0 0.058
8 17:00 49.6 29.7 46 W 1 G 8 29.78 1008.4 0.00 234 0.0 0.052
8 16:00 49.6 29.7 46 WSW 4 G 9 29.78 1008.4 0.00 357 0.0 0.046
8 15:00 49.2 32.3 52 SSE 5 G 12 29.77 1008.3 0.00 403 0.0 0.038
8 14:00 47.7 31.4 49.8 41.3 53 W 2 G 8 29.78 1008.6 0.00 309 0.0 0.033
8 13:00 46.0 31.2 56 SSW 2 G 6 29.79 1008.7 0.00 134 0.0 0.029
8 12:00 46.6 31.7 56 W 2 G 12 29.78 1008.6 0.00 213 0.0 0.022
8 11:00 47.3 33.3 58 SW 4 G 13 29.78 1008.4 0.00 789 0.0 0.013
8 10:00 45.3 35.7 69 S 3 G 7 29.78 1008.6 0.00 381 0.0 0.009
8 09:00 41.4 34.1 75 SW 1 G 9 29.78 1008.6 0.00 107 0.0 0.007
8 08:00 41.3 33.6 41.5 36.3 74 SW 0 G 9 29.77 1008.3 0.00 113 0.0 0.005
8 07:00 40.6 33.0 74 SSW 3 G 9 29.76 1007.8 0.00 56 0.0 0.004
8 06:00 39.1 32.5 77 SSW 2 G 5 29.74 1007.1 0.00 7 0.0 0.004
8 05:00 37.9 32.0 79 SSW 2 G 8 29.73 1006.8 0.00 0 0.0 0.003
8 04:00 36.6 31.0 80 S 0 G 6 29.73 1006.7 0.00 0 0.0 0.003
8 03:00 38.9 32.0 76 SW 1 G 5 29.73 1006.8 0.00 0 0.0 0.002
8 02:00 40.4 31.7 46.7 40.4 71 SSW 1 G 3 29.73 1006.8 0.00 0 0.0 0.001
8 01:00 41.5 32.1 69 SSE 1 G 5 29.74 1007.1 0.00 0 0.0 0.000
8 00:00 42.6 31.3 64 S 2 G 5 29.74 1007.3 0.00 0 0.0 0.118
7 23:00 42.7 31.0 63 WSW 0 G 4 29.75 1007.3 0.00 0 0.0 0.117
7 22:00 42.1 29.6 61 W 0 G 3 29.75 1007.3 0.00 0 0.0 0.116
7 21:00 42.0 30.3 63 Calm 29.74 1007.1 0.00 0 0.0 0.116
7 20:00 46.7 29.0 53.1 46.7 50 SW 4 G 9 29.73 1006.7 0.00 5 0.0 0.114
7 19:00 48.7 28.8 46 SW 5 G 13 29.72 1006.6 0.00 44 0.0 0.110
7 18:00 50.3 29.2 44 SW 4 G 14 29.73 1006.7 0.00 113 0.0 0.104
7 17:00 50.4 29.9 45 WSW 5 G 16 29.72 1006.5 0.00 221 0.0 0.098
7 16:00 50.2 29.7 45 W 8 G 16 29.72 1006.5 0.00 181 0.0 0.090
7 15:00 53.0 33.8 48 WSW 7 G 17 29.72 1006.5 0.00 965 0.0 0.079
7 14:00 49.7 30.3 53.1 40.3 47 SW 6 G 16 29.73 1006.7 0.00 253 0.0 0.069
7 13:00 52.5 33.4 48 SW 5 G 21 29.73 1006.8 0.00 1132 0.0 0.050
7 12:00 50.2 34.2 54 SSW 6 G 13 29.75 1007.5 0.00 367 0.0 0.034
7 11:00 47.7 34.5 60 W 11 G 16 29.76 1007.7 0.00 823 0.0 0.020
7 10:00 46.0 37.5 72 SSW 7 G 19 29.76 1007.8 0.00 677 0.0 0.009
7 09:00 43.4 37.0 78 SW 6 G 16 29.76 1007.8 0.00 489 0.0 0.002
7 08:00 41.9 38.0 41.9 39.4 86 WSW 7 G 16 29.76 1007.8 0.00 294 0.0 0.000
7 07:00 40.9 39.6 95 SW 5 G 14 29.74 1007.1 0.00 44 0.0 0.000
7 06:00 40.8 39.5 95 SSE 1 G 6 29.73 1006.8 0.00 0 0.0 0.000
7 05:00 40.4 39.1 95 S 2 G 8 29.72 1006.6 0.00 0 0.0 0.000
7 04:00 40.2 38.9 95 S 2 G 6 29.73 1006.9 0.00 0 0.0 0.000
7 03:00 40.0 38.4 94 S 3 G 6 29.73 1006.7 0.00 0 0.0 0.000
7 02:00 39.6 38.3 42.7 37.8 95 WSW 0 G 3 29.74 1007.0 0.00 0 0.0 0.000
7 01:00 38.4 36.8 94 Calm 29.75 1007.5 0.00 0 0.0 0.000
7 00:00 39.1 37.2 93 Calm 29.76 1007.8 0.58 0 0.0 0.011
6 23:00 41.5 39.9 94 Calm 29.76 1007.9 0.57 0 0.0 0.011
6 22:00 42.1 40.5 94 Calm 29.76 1007.7 0.57 0 0.0 0.011
6 21:00 42.2 40.6 94 Calm 29.76 1007.8 0.57 0 0.0 0.011
6 20:00 42.6 40.7 43.8 42.5 93 Calm 29.74 1007.0 0.01 0.07 0.57 0 0.0 0.011
6 19:00 43.1 41.2 93 NW 0 G 2 29.72 1006.3 0.57 30 0.0 0.010
6 18:00 42.9 41.0 93 Calm 29.72 1006.6 0.01 0.57 33 0.0 0.009
6 17:00 42.7 40.8 93 W 2 G 6 29.71 1006.3 0.03 0.06 0.56 83 0.0 0.008
6 16:00 43.6 41.7 93 N 0 G 4 29.71 1006.1 0.01 0.53 53 0.0 0.007
6 15:00 43.3 41.4 93 NNW 1 G 4 29.70 1005.9 0.02 0.52 135 0.0 0.006
6 14:00 42.8 41.2 44.3 41.5 94 Calm 29.72 1006.6 0.02 0.21 0.34 0.50 97 0.0 0.005
6 13:00 42.0 40.1 93 NNW 1 G 8 29.72 1006.6 0.07 0.48 95 0.0 0.004
6 12:00 41.8 39.6 92 NW 1 G 5 29.74 1007.2 0.12 0.41 76 0.0 0.003
6 11:00 42.5 40.3 92 N 0 G 4 29.73 1006.9 0.06 0.13 0.29 37 0.0 0.002
6 10:00 42.6 40.4 92 NNW 2 G 8 29.74 1007.0 0.02 0.23 53 0.0 0.001
6 09:00 42.6 40.2 91 WNW 0 G 3 29.75 1007.5 0.05 0.21 69 0.0 0.000
6 08:00 44.3 42.1 49.4 44.3 92 W 0 G 2 29.77 1008.1 0.05 0.09 0.10 0.16 19 0.0 0.000
6 07:00 45.2 43.0 92 N 0 G 2 29.75 1007.4 0.01 0.11 9 0.0 0.000
6 06:00 45.4 42.9 91 N 0 G 3 29.74 1007.2 0.03 0.10 5 0.0 0.000
6 05:00 46.6 44.1 91 NW 1 G 3 29.75 1007.6 0.01 0.07 0 0.0 0.000
6 04:00 46.9 44.1 90 WSW 0 G 3 29.76 1007.7 0.01 0.07 0 0.0 0.000
6 03:00 48.1 45.6 91 Calm 29.74 1007.1 0.06 0 0.0 0.000
6 02:00 49.4 46.9 62.2 49.4 91 NW 0 G 3 29.74 1007.2 0.01 0.13 0.14 0.06 0 0.0 0.000

Data generated by WxSolution Version 1.9.2, Build 2023.03.05.


 
 
Current Radar Loop:

Sun Position

Copyright © WestfordWeather.net 2007-2026. All rights reserved.